Time;durP1;ratioP1;P1;durP2;ratioP2;P2;SDS_P1;SDS_P2;PMS_P1;PMS_P2;Temp;Humidity;BMP_temperature;BMP_pressure;BME280_temperature;BME280_humidity;BME280_pressure;Samples;Min_cycle;Max_cycle;Signal;HPM_P1;HPM_P2
2022/03/11 00:02:09;;;;;;;9.37;6.47;;;2.90;99.90;;;;;;5030235;28;20191;-84
2022/03/11 00:04:34;;;;;;;12.30;6.43;;;2.80;99.90;;;;;;5034502;28;20198;-85
2022/03/11 00:07:00;;;;;;;11.17;5.80;;;2.80;99.90;;;;;;5036141;28;20601;-84
2022/03/11 00:09:25;;;;;;;12.57;6.47;;;2.80;99.90;;;;;;5035719;28;20212;-84
2022/03/11 00:11:51;;;;;;;10.63;6.67;;;2.80;99.90;;;;;;5035541;28;20217;-84
2022/03/11 00:14:18;;;;;;;11.40;6.13;;;2.80;99.90;;;;;;5036035;28;20173;-84
2022/03/11 00:16:44;;;;;;;9.53;6.23;;;2.70;99.90;;;;;;5035234;28;20200;-84
2022/03/11 00:19:10;;;;;;;11.27;6.50;;;2.70;99.90;;;;;;5034249;28;20236;-84
2022/03/11 00:21:35;;;;;;;10.83;6.33;;;2.70;99.90;;;;;;5034143;28;20192;-84
2022/03/11 00:24:01;;;;;;;11.47;6.60;;;2.70;99.90;;;;;;5034142;28;20175;-83
2022/03/11 00:26:27;;;;;;;13.07;6.57;;;2.70;99.90;;;;;;5035275;28;20265;-83
2022/03/11 00:28:52;;;;;;;9.27;6.30;;;2.60;99.90;;;;;;5035199;28;20177;-83
2022/03/11 00:31:18;;;;;;;9.60;6.10;;;2.60;99.90;;;;;;5034669;28;20190;-84
2022/03/11 00:33:44;;;;;;;9.73;5.93;;;2.60;99.90;;;;;;5034078;28;20179;-84
2022/03/11 00:36:09;;;;;;;9.90;6.10;;;2.60;99.90;;;;;;5035110;28;20638;-84
2022/03/11 00:38:35;;;;;;;9.03;5.77;;;2.50;99.90;;;;;;5035031;28;20181;-83
2022/03/11 00:41:01;;;;;;;10.23;6.50;;;2.50;99.90;;;;;;5034440;28;20202;-84
2022/03/11 00:43:27;;;;;;;9.67;6.23;;;2.50;99.90;;;;;;5035064;28;20166;-84
2022/03/11 00:45:54;;;;;;;11.17;5.73;;;2.50;99.90;;;;;;5033878;28;20233;-84
2022/03/11 00:48:20;;;;;;;9.80;6.30;;;2.50;99.90;;;;;;5033812;28;20212;-84
2022/03/11 00:50:47;;;;;;;9.00;5.80;;;2.50;99.90;;;;;;5035000;28;20220;-84
2022/03/11 00:53:13;;;;;;;12.63;6.47;;;2.40;99.90;;;;;;5034812;28;20300;-83
2022/03/11 00:55:39;;;;;;;8.70;5.70;;;2.40;99.90;;;;;;5034818;28;20201;-84
2022/03/11 00:58:05;;;;;;;14.20;6.17;;;2.40;99.90;;;;;;5034723;28;20178;-83
2022/03/11 01:00:32;;;;;;;9.43;5.67;;;2.40;99.90;;;;;;5033086;28;20238;-83
2022/03/11 01:02:57;;;;;;;9.53;5.73;;;2.30;99.90;;;;;;5034701;28;20236;-84
2022/03/11 01:05:23;;;;;;;10.50;6.13;;;2.30;99.90;;;;;;5034761;28;20246;-83
2022/03/11 01:07:50;;;;;;;9.83;5.47;;;2.30;99.90;;;;;;5034718;28;20620;-83
2022/03/11 01:10:15;;;;;;;9.70;5.60;;;2.30;99.90;;;;;;5033227;28;20185;-84
2022/03/11 01:12:42;;;;;;;13.07;5.90;;;2.20;99.90;;;;;;5034687;28;20206;-83
2022/03/11 01:15:09;;;;;;;11.50;6.20;;;2.30;99.90;;;;;;5034345;28;20170;-84
2022/03/11 01:17:35;;;;;;;10.60;6.23;;;2.30;99.90;;;;;;5033511;28;20188;-85
2022/03/11 01:20:01;;;;;;;9.00;5.40;;;2.20;99.90;;;;;;5034487;28;20483;-84
2022/03/11 01:22:26;;;;;;;8.23;5.20;;;2.20;99.90;;;;;;5033147;28;20188;-84
2022/03/11 01:24:52;;;;;;;10.07;6.00;;;2.10;99.90;;;;;;5034357;28;20202;-83
2022/03/11 01:27:18;;;;;;;12.03;5.67;;;2.10;99.90;;;;;;5034366;28;20174;-84
2022/03/11 01:29:43;;;;;;;13.30;5.87;;;2.10;99.90;;;;;;5033514;28;20217;-84
2022/03/11 01:32:10;;;;;;;10.57;5.90;;;2.10;99.90;;;;;;5032698;28;20218;-84
2022/03/11 01:34:36;;;;;;;10.33;5.67;;;2.10;99.90;;;;;;5033275;28;20221;-84
2022/03/11 01:37:02;;;;;;;8.57;5.40;;;2.00;99.90;;;;;;5034138;28;20182;-83
2022/03/11 01:39:27;;;;;;;9.93;5.30;;;2.10;99.90;;;;;;5034239;28;20175;-84
2022/03/11 01:41:53;;;;;;;9.43;5.90;;;2.00;99.90;;;;;;5033084;28;20179;-84
2022/03/11 01:44:19;;;;;;;9.73;5.63;;;2.00;99.90;;;;;;5033154;28;20178;-84
2022/03/11 01:46:48;;;;;;;16.60;5.87;;;2.00;99.90;;;;;;5033902;28;20621;-84
2022/03/11 01:49:13;;;;;;;8.47;5.13;;;1.90;99.90;;;;;;5033056;28;20174;-85
2022/03/11 01:51:42;;;;;;;8.00;5.00;;;1.90;99.90;;;;;;5034213;28;20218;-84
2022/03/11 01:54:08;;;;;;;9.83;6.00;;;1.90;99.90;;;;;;5035255;28;20265;-84
2022/03/11 01:56:36;;;;;;;9.27;5.70;;;1.90;99.90;;;;;;5038238;28;20226;-84
2022/03/11 01:59:03;;;;;;;9.93;5.90;;;1.90;99.90;;;;;;5038210;28;20605;-84
2022/03/11 02:01:29;;;;;;;10.27;6.47;;;1.90;99.90;;;;;;5037688;28;20222;-83
2022/03/11 02:03:57;;;;;;;11.53;6.53;;;1.80;99.90;;;;;;5038058;28;20228;-83
2022/03/11 02:06:24;;;;;;;8.87;5.47;;;1.80;99.90;;;;;;5037811;28;20183;-85
2022/03/11 02:08:53;;;;;;;10.43;5.87;;;1.80;99.90;;;;;;5038262;28;20189;-84
2022/03/11 02:11:19;;;;;;;9.47;5.83;;;1.70;99.90;;;;;;5036595;28;20182;-85
2022/03/11 02:13:45;;;;;;;8.20;5.33;;;1.70;99.90;;;;;;5036643;28;20202;-84
2022/03/11 02:16:15;;;;;;;12.13;6.10;;;1.70;99.90;;;;;;5037594;28;20201;-84
2022/03/11 02:18:41;;;;;;;11.37;6.33;;;1.70;99.90;;;;;;5037763;28;20629;-81
2022/03/11 02:21:07;;;;;;;8.33;5.53;;;1.70;99.90;;;;;;5037619;28;20171;-82
2022/03/11 02:24:10;;;;;;;9.10;6.03;;;1.70;99.90;;;;;;5036544;28;20266;-81
2022/03/11 02:26:36;;;;;;;11.37;6.43;;;1.70;99.90;;;;;;5035772;28;20571;-81
2022/03/11 02:29:03;;;;;;;12.57;6.70;;;1.60;99.90;;;;;;5036008;28;20178;-82
2022/03/11 02:31:30;;;;;;;12.23;6.57;;;1.60;99.90;;;;;;5035772;28;20183;-82
2022/03/11 02:33:58;;;;;;;10.10;5.83;;;1.60;99.90;;;;;;5037503;28;20261;-81
2022/03/11 02:36:24;;;;;;;10.13;6.03;;;1.60;99.90;;;;;;5037345;28;20180;-81
2022/03/11 02:38:50;;;;;;;12.33;6.77;;;1.60;99.90;;;;;;5037427;28;20185;-81
2022/03/11 02:41:16;;;;;;;9.53;6.33;;;1.60;99.90;;;;;;5037263;28;20173;-81
2022/03/11 02:43:42;;;;;;;10.17;6.57;;;1.50;99.90;;;;;;5036060;28;20185;-81
2022/03/11 02:46:13;;;;;;;10.27;6.27;;;1.50;99.90;;;;;;5035628;28;20693;-80
2022/03/11 02:48:39;;;;;;;13.27;6.97;;;1.50;99.90;;;;;;5037127;28;20601;-81
2022/03/11 02:51:05;;;;;;;10.40;6.20;;;1.50;99.90;;;;;;5035894;28;20185;-81
2022/03/11 02:53:31;;;;;;;10.23;6.20;;;1.50;99.90;;;;;;5037057;28;20210;-85
2022/03/11 02:55:58;;;;;;;11.23;6.77;;;1.40;99.90;;;;;;5035717;28;20521;-85
2022/03/11 02:58:23;;;;;;;11.73;7.00;;;1.40;99.90;;;;;;5035743;28;20181;-84
2022/03/11 03:00:49;;;;;;;11.00;6.43;;;1.40;99.90;;;;;;5036553;28;20624;-84
2022/03/11 03:03:15;;;;;;;10.93;6.60;;;1.40;99.90;;;;;;5035888;28;20185;-84
2022/03/11 03:05:41;;;;;;;10.30;6.40;;;1.40;99.90;;;;;;5036552;28;20170;-85
2022/03/11 03:08:07;;;;;;;12.40;6.77;;;1.30;99.90;;;;;;5035825;28;20186;-84
2022/03/11 03:10:33;;;;;;;13.27;7.03;;;1.30;99.90;;;;;;5035584;28;20183;-85
2022/03/11 03:12:59;;;;;;;14.13;6.67;;;1.30;99.90;;;;;;5035434;28;20217;-85
2022/03/11 03:15:24;;;;;;;12.63;6.30;;;1.20;99.90;;;;;;5036785;28;20159;-85
2022/03/11 03:17:50;;;;;;;11.57;6.80;;;1.20;99.90;;;;;;5036708;28;20202;-85
2022/03/11 03:20:16;;;;;;;12.37;6.83;;;1.20;99.90;;;;;;5036789;28;20613;-85
2022/03/11 03:22:42;;;;;;;11.67;7.00;;;1.20;99.90;;;;;;5035480;28;20609;-84
2022/03/11 03:25:09;;;;;;;12.33;7.43;;;1.20;99.90;;;;;;5036672;28;20174;-84
2022/03/11 03:27:35;;;;;;;13.03;7.40;;;1.10;99.90;;;;;;5035172;28;20273;-85
2022/03/11 03:30:02;;;;;;;11.67;7.00;;;1.10;99.90;;;;;;5036572;28;20177;-85
2022/03/11 03:32:28;;;;;;;14.67;6.67;;;1.10;99.90;;;;;;5034725;28;20549;-84
2022/03/11 03:34:54;;;;;;;11.50;7.27;;;1.10;99.90;;;;;;5035633;28;20177;-84
2022/03/11 03:37:19;;;;;;;16.30;7.37;;;1.10;99.90;;;;;;5036414;28;20178;-85
2022/03/11 03:39:45;;;;;;;13.07;7.53;;;1.00;99.90;;;;;;5036323;28;20167;-83
2022/03/11 03:42:11;;;;;;;14.27;7.43;;;1.00;99.90;;;;;;5035143;28;20177;-85
2022/03/11 03:44:36;;;;;;;12.23;7.23;;;0.90;99.90;;;;;;5035040;28;20186;-86
2022/03/11 03:47:04;;;;;;;13.03;7.23;;;0.90;99.90;;;;;;5034825;28;20195;-85
2022/03/11 03:49:30;;;;;;;13.73;7.60;;;0.90;99.90;;;;;;5036374;28;20253;-85
2022/03/11 03:51:56;;;;;;;12.57;7.50;;;0.90;99.90;;;;;;5036036;28;20271;-84
2022/03/11 03:54:22;;;;;;;12.97;7.27;;;0.90;99.90;;;;;;5034977;28;20692;-85
2022/03/11 03:56:48;;;;;;;15.33;7.67;;;0.90;99.90;;;;;;5035968;28;20172;-85
2022/03/11 03:59:15;;;;;;;12.97;7.40;;;0.80;99.90;;;;;;5035847;28;20181;-85
2022/03/11 04:01:42;;;;;;;18.23;7.93;;;0.80;99.90;;;;;;5035497;28;20237;-84
2022/03/11 04:04:09;;;;;;;13.47;7.67;;;0.70;99.90;;;;;;5034721;28;20511;-85
2022/03/11 04:06:36;;;;;;;11.27;7.03;;;0.70;99.90;;;;;;5035844;28;20159;-85
2022/03/11 04:09:04;;;;;;;13.47;7.53;;;0.70;99.90;;;;;;5035782;28;20232;-84
2022/03/11 04:11:30;;;;;;;14.53;7.67;;;0.70;99.90;;;;;;5035657;28;20194;-85
2022/03/11 04:13:58;;;;;;;15.50;7.53;;;0.70;99.90;;;;;;5034611;28;20624;-84
2022/03/11 04:16:24;;;;;;;12.43;6.73;;;0.60;99.90;;;;;;5034591;28;20167;-84
2022/03/11 04:18:50;;;;;;;12.30;7.77;;;0.60;99.90;;;;;;5034474;28;20241;-85
2022/03/11 04:21:17;;;;;;;15.80;7.97;;;0.60;99.90;;;;;;5034263;28;20514;-85
2022/03/11 04:23:44;;;;;;;11.83;7.83;;;0.50;99.90;;;;;;5035544;28;20174;-85
2022/03/11 04:26:10;;;;;;;13.90;7.20;;;0.50;99.90;;;;;;5034201;28;20173;-86
2022/03/11 04:28:37;;;;;;;11.77;7.40;;;0.50;99.90;;;;;;5034281;28;20183;-85
2022/03/11 04:31:07;;;;;;;12.70;7.70;;;0.50;99.90;;;;;;5033908;28;20197;-84
2022/03/11 04:33:34;;;;;;;19.23;7.63;;;0.50;99.90;;;;;;5035528;28;20198;-85
2022/03/11 04:36:01;;;;;;;16.27;7.70;;;0.50;99.90;;;;;;5035204;28;20631;-85
2022/03/11 04:38:27;;;;;;;13.70;8.23;;;0.40;99.90;;;;;;5034298;28;20181;-85
2022/03/11 04:40:53;;;;;;;11.60;7.67;;;0.30;99.90;;;;;;5035132;28;20167;-85
2022/03/11 04:43:20;;;;;;;16.03;8.00;;;0.40;99.90;;;;;;5035236;28;20173;-85
2022/03/11 04:45:45;;;;;;;12.77;7.30;;;0.40;99.90;;;;;;5035049;28;20521;-85
2022/03/11 04:48:12;;;;;;;12.60;7.27;;;0.30;99.90;;;;;;5035195;28;20181;-85
2022/03/11 04:50:38;;;;;;;14.47;7.23;;;0.30;99.90;;;;;;5033907;28;20229;-84
2022/03/11 04:53:05;;;;;;;13.07;8.10;;;0.30;99.90;;;;;;5034923;28;20210;-85
2022/03/11 04:55:31;;;;;;;14.13;7.53;;;0.30;99.90;;;;;;5035090;28;20605;-85
2022/03/11 04:57:57;;;;;;;13.40;7.20;;;0.30;99.90;;;;;;5033776;28;20236;-84
2022/03/11 05:00:23;;;;;;;14.43;7.73;;;0.20;99.90;;;;;;5033612;28;20320;-85
2022/03/11 05:02:48;;;;;;;16.37;7.87;;;0.20;99.90;;;;;;5034662;28;20207;-85
2022/03/11 05:05:15;;;;;;;13.97;7.60;;;0.30;99.90;;;;;;5033677;28;20328;-86
2022/03/11 05:07:41;;;;;;;13.23;7.57;;;0.20;99.90;;;;;;5034759;28;20171;-86
2022/03/11 05:10:14;;;;;;;12.73;6.73;;;0.20;99.90;;;;;;5033657;28;20621;-85
2022/03/11 05:12:40;;;;;;;11.07;6.47;;;0.10;99.90;;;;;;5034812;28;20192;-85
2022/03/11 05:15:06;;;;;;;19.47;7.80;;;0.20;99.90;;;;;;5034757;28;20265;-85
2022/03/11 05:17:32;;;;;;;11.10;6.83;;;0.20;99.90;;;;;;5034418;28;20185;-85
2022/03/11 05:19:58;;;;;;;11.37;6.87;;;0.10;99.90;;;;;;5033466;28;20186;-85
2022/03/11 05:22:24;;;;;;;13.07;7.20;;;0.10;99.90;;;;;;5034710;28;20196;-85
2022/03/11 05:24:50;;;;;;;13.87;7.50;;;0.10;99.90;;;;;;5033486;28;20617;-83
2022/03/11 05:27:16;;;;;;;12.90;6.80;;;0.00;99.90;;;;;;5033507;28;20181;-84
2022/03/11 05:29:42;;;;;;;12.97;7.13;;;0.00;99.90;;;;;;5034656;28;20558;-85
2022/03/11 05:32:09;;;;;;;14.07;7.53;;;0.00;99.90;;;;;;5034355;28;20230;-84
2022/03/11 05:34:39;;;;;;;11.80;6.67;;;0.10;99.90;;;;;;5034470;28;20581;-84
2022/03/11 05:37:06;;;;;;;12.30;6.67;;;0.10;99.90;;;;;;5032972;28;20177;-84
2022/03/11 05:39:33;;;;;;;14.33;7.43;;;0.00;99.90;;;;;;5033252;28;20187;-84
2022/03/11 05:41:59;;;;;;;14.97;7.37;;;0.00;99.90;;;;;;5034591;28;20635;-85
2022/03/11 05:44:25;;;;;;;17.10;7.60;;;0.00;99.90;;;;;;5033064;28;20236;-84
2022/03/11 05:46:52;;;;;;;13.40;7.20;;;0.00;99.90;;;;;;5034066;28;20515;-83
2022/03/11 05:49:18;;;;;;;13.00;6.90;;;-0.10;99.90;;;;;;5033092;28;20712;-85
2022/03/11 05:51:44;;;;;;;13.53;6.83;;;-0.10;99.90;;;;;;5034191;28;20628;-85
2022/03/11 05:54:10;;;;;;;15.00;6.93;;;-0.10;99.90;;;;;;5033212;28;20201;-86
2022/03/11 05:56:37;;;;;;;14.57;7.23;;;-0.10;99.90;;;;;;5034286;28;20167;-85
2022/03/11 05:59:04;;;;;;;12.37;7.07;;;-0.10;99.90;;;;;;5034295;28;20188;-84
2022/03/11 06:01:31;;;;;;;13.40;6.87;;;-0.10;99.90;;;;;;5033806;28;20231;-84
2022/03/11 06:03:56;;;;;;;16.70;7.50;;;-0.10;99.90;;;;;;5033059;28;20179;-84
2022/03/11 06:06:22;;;;;;;12.23;6.60;;;-0.10;99.90;;;;;;5033974;28;20182;-83
2022/03/11 06:08:48;;;;;;;12.53;7.07;;;0.00;99.90;;;;;;5034110;28;20174;-84
2022/03/11 06:11:14;;;;;;;13.00;6.87;;;-0.10;99.90;;;;;;5033373;28;20190;-83
2022/03/11 06:13:40;;;;;;;11.37;6.70;;;-0.10;99.90;;;;;;5029261;28;20218;-85
2022/03/11 06:16:06;;;;;;;12.10;6.43;;;0.00;99.90;;;;;;5031868;28;20651;-85
2022/03/11 06:18:31;;;;;;;14.20;6.87;;;0.00;99.90;;;;;;5032583;28;20232;-84
2022/03/11 06:20:57;;;;;;;13.10;7.17;;;0.00;99.90;;;;;;5032741;28;20590;-85
2022/03/11 06:23:23;;;;;;;11.83;6.30;;;0.10;99.90;;;;;;5033774;28;20597;-84
2022/03/11 06:25:50;;;;;;;12.40;6.57;;;0.10;99.90;;;;;;5032466;28;20167;-84
2022/03/11 06:28:15;;;;;;;13.80;6.57;;;0.10;99.90;;;;;;5032302;28;20517;-85
2022/03/11 06:30:42;;;;;;;12.17;6.37;;;0.10;99.90;;;;;;5033735;28;20185;-84
2022/03/11 06:33:09;;;;;;;13.33;6.70;;;0.10;99.90;;;;;;5032275;28;20631;-86
2022/03/11 06:35:35;;;;;;;12.13;6.20;;;0.10;99.90;;;;;;5031552;28;20177;-87
2022/03/11 06:38:01;;;;;;;12.10;6.43;;;0.20;99.90;;;;;;5032405;28;20227;-84
2022/03/11 06:40:27;;;;;;;13.27;6.70;;;0.20;99.90;;;;;;5035987;28;20259;-84
2022/03/11 06:42:53;;;;;;;12.27;6.27;;;0.20;99.90;;;;;;5036064;28;20174;-85
2022/03/11 06:45:19;;;;;;;10.97;6.37;;;0.30;99.90;;;;;;5035905;28;20210;-83
2022/03/11 06:47:46;;;;;;;14.33;6.40;;;0.30;99.60;;;;;;5035365;28;20262;-84
2022/03/11 06:50:13;;;;;;;10.23;6.00;;;0.40;99.60;;;;;;5035799;28;20259;-84
2022/03/11 06:52:39;;;;;;;12.97;6.73;;;0.50;99.50;;;;;;5035862;28;20214;-85
2022/03/11 06:55:06;;;;;;;12.77;6.30;;;0.40;99.30;;;;;;5037196;28;20545;-83
2022/03/11 06:57:32;;;;;;;12.93;6.40;;;0.50;98.70;;;;;;5050618;28;20249;-84
2022/03/11 06:59:58;;;;;;;13.80;6.70;;;0.60;98.60;;;;;;5055082;28;20663;-83
2022/03/11 07:02:24;;;;;;;13.03;6.43;;;0.70;98.30;;;;;;5056336;28;20206;-81
2022/03/11 07:04:50;;;;;;;11.33;6.00;;;0.70;98.40;;;;;;5056361;28;20235;-82
2022/03/11 07:07:15;;;;;;;12.03;6.60;;;0.70;98.20;;;;;;5052297;28;20170;-83
2022/03/11 07:09:41;;;;;;;12.73;6.03;;;0.80;97.40;;;;;;5035406;28;20185;-83
2022/03/11 07:12:07;;;;;;;13.37;7.03;;;0.90;98.20;;;;;;5035374;28;20214;-83
2022/03/11 07:14:35;;;;;;;13.70;6.03;;;0.90;97.70;;;;;;5035224;28;20209;-85
2022/03/11 07:17:06;;;;;;;14.13;6.77;;;0.90;97.20;;;;;;5033843;28;20186;-83
2022/03/11 07:19:33;;;;;;;13.63;6.43;;;1.00;97.80;;;;;;5036312;28;20154;-81
2022/03/11 07:22:01;;;;;;;11.97;6.50;;;1.10;96.80;;;;;;5036480;28;20173;-82
2022/03/11 07:24:27;;;;;;;13.10;6.70;;;1.10;96.40;;;;;;5036381;28;20656;-81
2022/03/11 07:26:53;;;;;;;11.87;6.10;;;1.10;96.50;;;;;;5036187;28;20166;-81
2022/03/11 07:29:19;;;;;;;12.67;6.90;;;1.20;96.40;;;;;;5035965;28;20185;-83
2022/03/11 07:31:45;;;;;;;15.23;5.80;;;1.20;96.10;;;;;;5034325;28;20182;-82
2022/03/11 07:34:11;;;;;;;14.90;6.37;;;1.20;96.30;;;;;;5034856;28;20209;-82
2022/03/11 07:36:37;;;;;;;14.43;6.60;;;1.30;96.40;;;;;;5034822;28;20190;-82
2022/03/11 07:39:07;;;;;;;12.67;5.90;;;1.40;96.20;;;;;;5042424;28;20197;-82
2022/03/11 07:41:34;;;;;;;14.00;6.00;;;1.50;96.00;;;;;;5054744;28;20185;-82
2022/03/11 07:44:01;;;;;;;10.63;5.90;;;1.50;96.00;;;;;;5055943;28;20193;-82
2022/03/11 07:46:28;;;;;;;11.63;6.00;;;1.60;95.50;;;;;;5055543;28;20170;-82
2022/03/11 07:48:54;;;;;;;10.20;5.83;;;1.70;95.40;;;;;;5055831;28;20181;-83
2022/03/11 07:51:21;;;;;;;11.23;6.53;;;1.70;94.60;;;;;;5041717;28;20214;-82
2022/03/11 07:53:47;;;;;;;12.57;6.07;;;1.80;94.80;;;;;;5055656;28;20205;-82
2022/03/11 07:56:14;;;;;;;10.63;5.63;;;1.90;94.30;;;;;;5033135;28;20182;-83
2022/03/11 07:58:41;;;;;;;12.67;5.97;;;1.90;94.70;;;;;;5034176;28;20604;-83
2022/03/11 08:01:11;;;;;;;11.83;6.07;;;2.00;94.10;;;;;;5035153;28;20305;-82
2022/03/11 08:03:39;;;;;;;10.83;5.80;;;2.00;93.60;;;;;;5034594;28;20178;-83
2022/03/11 08:06:05;;;;;;;14.20;6.53;;;2.10;93.90;;;;;;5035555;28;20195;-81
2022/03/11 08:08:31;;;;;;;10.83;6.17;;;2.20;93.60;;;;;;5034513;28;20655;-83
2022/03/11 08:10:57;;;;;;;13.73;5.67;;;2.20;93.50;;;;;;5033776;28;20178;-83
2022/03/11 08:13:23;;;;;;;12.90;6.20;;;2.30;92.50;;;;;;5033770;28;20305;-84
2022/03/11 08:15:49;;;;;;;12.67;6.30;;;2.40;93.30;;;;;;5035128;28;20185;-84
2022/03/11 08:18:15;;;;;;;13.73;6.10;;;2.40;93.10;;;;;;5054184;28;20178;-82
2022/03/11 08:20:41;;;;;;;13.90;6.17;;;2.50;92.50;;;;;;5053948;28;20235;-83
2022/03/11 08:23:08;;;;;;;11.13;6.27;;;2.50;91.80;;;;;;5039669;28;20525;-84
2022/03/11 08:25:34;;;;;;;13.87;6.17;;;2.60;90.90;;;;;;5029486;28;20183;-82
2022/03/11 08:28:00;;;;;;;11.30;6.10;;;2.60;91.40;;;;;;5033935;28;20188;-83
2022/03/11 08:30:26;;;;;;;10.40;6.13;;;2.70;90.60;;;;;;5037898;28;20183;-85
2022/03/11 08:32:53;;;;;;;11.40;5.90;;;2.80;91.80;;;;;;5037402;28;20228;-86
2022/03/11 08:35:20;;;;;;;13.80;6.00;;;2.90;90.70;;;;;;5033892;28;20283;-84
2022/03/11 08:37:46;;;;;;;11.10;5.77;;;2.90;90.10;;;;;;5033693;28;20609;-83
2022/03/11 08:40:14;;;;;;;11.27;5.60;;;2.90;89.00;;;;;;5034760;28;20515;-83
2022/03/11 08:42:41;;;;;;;9.03;5.83;;;2.90;89.20;;;;;;5034835;28;20224;-83
2022/03/11 08:45:08;;;;;;;12.63;5.53;;;3.00;90.60;;;;;;5053395;28;20204;-83
2022/03/11 08:47:34;;;;;;;13.10;7.50;;;3.10;88.00;;;;;;5035721;28;20186;-86
2022/03/11 08:50:02;;;;;;;11.50;6.33;;;3.20;90.00;;;;;;5034088;28;20181;-84
2022/03/11 08:52:29;;;;;;;10.17;6.13;;;3.20;87.80;;;;;;5034729;28;20653;-87
2022/03/11 08:54:55;;;;;;;10.70;5.40;;;3.30;87.40;;;;;;5034922;28;20199;-84
2022/03/11 08:57:21;;;;;;;11.23;5.77;;;3.30;87.50;;;;;;5040876;28;20211;-86
2022/03/11 08:59:46;;;;;;;11.27;5.77;;;3.40;87.90;;;;;;5055095;28;20203;-87
2022/03/11 09:02:15;;;;;;;11.50;5.67;;;3.40;86.80;;;;;;5052835;28;20245;-83
2022/03/11 09:04:41;;;;;;;11.90;5.57;;;3.50;88.30;;;;;;5055021;28;20204;-82
2022/03/11 09:07:07;;;;;;;12.07;5.40;;;3.60;86.90;;;;;;5035200;28;20185;-83
2022/03/11 09:09:33;;;;;;;10.20;5.23;;;3.60;85.50;;;;;;5034503;28;20673;-81
2022/03/11 09:12:00;;;;;;;14.67;6.00;;;3.80;84.60;;;;;;5034544;28;20260;-81
2022/03/11 09:14:26;;;;;;;11.70;5.93;;;3.80;84.10;;;;;;5034479;28;20184;-83
2022/03/11 09:16:52;;;;;;;10.80;5.40;;;3.90;83.10;;;;;;5034277;28;20600;-82
2022/03/11 09:19:17;;;;;;;9.77;5.40;;;4.00;83.60;;;;;;5034695;28;20175;-83
2022/03/11 09:21:43;;;;;;;12.33;5.30;;;4.00;81.80;;;;;;5040362;28;20182;-83
2022/03/11 09:24:09;;;;;;;12.40;5.23;;;4.00;81.90;;;;;;5054106;28;20181;-84
2022/03/11 09:26:35;;;;;;;11.60;5.60;;;4.10;82.30;;;;;;5048904;28;20183;-83
2022/03/11 09:29:00;;;;;;;8.80;5.13;;;4.10;80.70;;;;;;5034217;28;20176;-86
2022/03/11 09:31:26;;;;;;;7.90;4.73;;;4.10;79.80;;;;;;5034145;28;20210;-83
2022/03/11 09:33:52;;;;;;;8.73;4.83;;;4.10;79.00;;;;;;5034382;28;20227;-84
2022/03/11 09:36:18;;;;;;;9.43;5.60;;;4.20;78.30;;;;;;5034114;28;20198;-83
2022/03/11 09:38:43;;;;;;;10.37;5.47;;;4.20;77.60;;;;;;5037802;28;20288;-83
2022/03/11 09:41:10;;;;;;;17.03;5.40;;;4.30;79.30;;;;;;5033042;28;20274;-84
2022/03/11 09:43:37;;;;;;;9.50;5.30;;;4.40;78.60;;;;;;5033089;28;20180;-84
2022/03/11 09:46:04;;;;;;;9.83;5.43;;;4.40;77.10;;;;;;5034349;28;20683;-84
2022/03/11 09:48:31;;;;;;;8.87;5.30;;;4.50;77.20;;;;;;5034755;28;20197;-84
2022/03/11 09:51:00;;;;;;;10.80;5.30;;;4.50;77.00;;;;;;5034246;28;20219;-84
2022/03/11 09:53:27;;;;;;;14.23;5.83;;;4.60;77.10;;;;;;5034061;28;20210;-84
2022/03/11 09:55:54;;;;;;;8.97;4.97;;;4.60;77.40;;;;;;5034398;28;20166;-85
2022/03/11 09:58:20;;;;;;;9.57;5.43;;;4.70;79.70;;;;;;5032728;28;20221;-83
2022/03/11 10:00:47;;;;;;;9.93;5.07;;;4.90;75.80;;;;;;5032917;28;20226;-83
2022/03/11 10:03:13;;;;;;;9.77;5.40;;;4.90;76.30;;;;;;5033784;28;20515;-84
2022/03/11 10:05:54;;;;;;;9.73;5.47;;;4.90;76.20;;;;;;5033900;28;20178;-84
2022/03/11 10:08:42;;;;;;;10.73;5.37;;;5.00;76.60;;;;;;5033871;28;20261;-85
2022/03/11 10:11:26;;;;;;;13.50;5.90;;;5.10;76.80;;;;;;5040388;28;20208;-81
2022/03/11 10:14:04;;;;;;;9.53;5.23;;;5.20;75.80;;;;;;5047096;28;20247;-81
2022/03/11 10:16:31;;;;;;;10.03;5.40;;;5.30;75.20;;;;;;5057638;28;20181;-83
2022/03/11 10:18:59;;;;;;;10.03;5.60;;;5.40;75.20;;;;;;5045746;28;20185;-81
2022/03/11 10:21:33;;;;;;;10.57;4.97;;;5.40;74.80;;;;;;5041402;28;20182;-84
2022/03/11 10:24:00;;;;;;;13.33;5.80;;;5.50;74.20;;;;;;5016247;28;20210;-81
2022/03/11 10:26:40;;;;;;;11.93;5.50;;;5.50;74.50;;;;;;5017293;28;20598;-81
2022/03/11 10:29:12;;;;;;;12.53;5.23;;;5.60;74.40;;;;;;5017822;28;20198;-83
2022/03/11 10:31:42;;;;;;;7.90;5.00;;;5.60;74.00;;;;;;5049917;28;20216;-85
2022/03/11 10:34:24;;;;;;;11.23;5.00;;;5.70;73.80;;;;;;5057393;28;20182;-84
2022/03/11 10:36:52;;;;;;;15.93;5.60;;;5.70;72.00;;;;;;5055922;28;20197;-84
2022/03/11 10:39:26;;;;;;;11.47;5.50;;;5.80;72.30;;;;;;5038604;28;20673;-83
2022/03/11 10:41:53;;;;;;;9.10;5.30;;;5.90;73.20;;;;;;5037322;28;20209;-84
2022/03/11 10:44:26;;;;;;;10.97;5.60;;;6.00;72.20;;;;;;5036134;28;20622;-85
2022/03/11 10:46:53;;;;;;;9.10;5.30;;;6.00;73.20;;;;;;5043323;28;20181;-83
2022/03/11 10:49:33;;;;;;;9.53;5.03;;;6.10;71.20;;;;;;5049038;28;20180;-80
2022/03/11 10:52:01;;;;;;;10.13;5.33;;;6.20;70.70;;;;;;5056801;28;20193;-81
2022/03/11 10:54:28;;;;;;;10.43;5.43;;;6.20;71.50;;;;;;5056742;28;20632;-84
2022/03/11 10:56:54;;;;;;;9.73;5.67;;;6.20;68.60;;;;;;5037167;28;20179;-81
2022/03/11 10:59:28;;;;;;;10.53;5.07;;;6.30;70.20;;;;;;5036958;28;20212;-82
2022/03/11 11:01:58;;;;;;;10.90;6.00;;;6.30;70.70;;;;;;5048332;28;20249;-83
2022/03/11 11:04:25;;;;;;;11.17;6.00;;;6.40;70.90;;;;;;5055463;28;20264;-81
2022/03/11 11:06:51;;;;;;;11.27;5.27;;;6.50;69.00;;;;;;5056659;28;20177;-83
2022/03/11 11:09:18;;;;;;;11.67;5.37;;;6.60;68.90;;;;;;5038189;28;20174;-82
2022/03/11 11:11:44;;;;;;;14.40;6.10;;;6.70;69.70;;;;;;5035126;28;20209;-83
2022/03/11 11:14:11;;;;;;;11.47;5.50;;;6.60;69.10;;;;;;5035151;28;20190;-83
2022/03/11 11:16:40;;;;;;;11.90;5.30;;;6.70;67.70;;;;;;5036232;28;20175;-82
2022/03/11 11:19:10;;;;;;;12.80;5.10;;;6.70;67.50;;;;;;5034886;28;20621;-83
2022/03/11 11:21:38;;;;;;;10.10;5.07;;;6.70;69.30;;;;;;5034941;28;20257;-81
2022/03/11 11:24:09;;;;;;;9.50;5.40;;;6.80;68.40;;;;;;5036264;28;20253;-82
2022/03/11 11:26:37;;;;;;;10.77;4.87;;;6.90;68.80;;;;;;5034737;28;20179;-82
2022/03/11 11:29:03;;;;;;;11.93;5.20;;;7.00;66.80;;;;;;5049801;28;20231;-80
2022/03/11 11:31:30;;;;;;;9.47;5.03;;;7.00;66.80;;;;;;5054804;28;20182;-84
2022/03/11 11:33:55;;;;;;;13.20;5.70;;;7.00;66.40;;;;;;5056165;28;20206;-87
2022/03/11 11:36:38;;;;;;;9.53;4.90;;;7.10;65.80;;;;;;5048768;28;20570;-85
2022/03/11 11:39:11;;;;;;;10.17;5.23;;;7.10;67.10;;;;;;5034786;28;20178;-83
2022/03/11 11:41:37;;;;;;;14.43;5.00;;;7.20;65.80;;;;;;5034928;28;20601;-85
2022/03/11 11:44:05;;;;;;;13.87;5.37;;;7.40;66.90;;;;;;5036095;28;20171;-85
2022/03/11 11:46:37;;;;;;;10.33;5.20;;;7.50;65.10;;;;;;5035933;28;20179;-84
2022/03/11 11:49:13;;;;;;;8.37;4.83;;;7.70;65.20;;;;;;5035858;28;20563;-86
2022/03/11 11:51:39;;;;;;;10.67;4.97;;;7.90;62.70;;;;;;5035762;28;20620;-82
2022/03/11 11:54:11;;;;;;;12.97;4.90;;;7.80;62.20;;;;;;5034580;28;20182;-82
2022/03/11 11:56:38;;;;;;;11.77;4.70;;;8.00;62.00;;;;;;5035861;28;20158;-82
2022/03/11 11:59:23;;;;;;;8.50;5.10;;;8.10;62.60;;;;;;5035683;28;20575;-82
2022/03/11 12:01:55;;;;;;;9.40;4.80;;;8.20;63.30;;;;;;5035180;28;20226;-82
2022/03/11 12:04:34;;;;;;;9.83;4.63;;;8.30;62.10;;;;;;5035318;28;20159;-82
2022/03/11 12:07:13;;;;;;;17.97;4.73;;;8.40;60.40;;;;;;5035536;28;20622;-84
2022/03/11 12:09:42;;;;;;;13.20;4.80;;;8.30;59.80;;;;;;5051445;28;20178;-83
2022/03/11 12:12:28;;;;;;;10.40;4.90;;;8.30;60.70;;;;;;5039932;28;20206;-85
2022/03/11 12:15:06;;;;;;;8.10;4.40;;;8.40;61.00;;;;;;5035501;28;20553;-85
2022/03/11 12:18:02;;;;;;;13.60;4.67;;;8.40;59.40;;;;;;5035161;28;20185;-84
2022/03/11 12:20:37;;;;;;;7.77;4.57;;;8.50;60.30;;;;;;5035471;28;20174;-84
2022/03/11 12:23:17;;;;;;;6.37;4.07;;;8.60;58.50;;;;;;5035328;28;20208;-82
2022/03/11 12:26:01;;;;;;;6.50;4.27;;;8.60;58.20;;;;;;5034187;28;20174;-84
2022/03/11 12:28:33;;;;;;;8.03;5.00;;;8.50;59.10;;;;;;5033891;28;20178;-84
2022/03/11 12:31:08;;;;;;;8.43;4.60;;;8.50;56.90;;;;;;5036001;28;20229;-84
2022/03/11 12:33:42;;;;;;;17.97;4.10;;;8.40;57.80;;;;;;5015248;28;20246;-85
2022/03/11 12:36:12;;;;;;;8.67;4.90;;;8.50;57.30;;;;;;5016147;28;20664;-84
2022/03/11 12:38:39;;;;;;;11.70;4.33;;;8.50;57.50;;;;;;5034514;28;20177;-81
2022/03/11 12:41:11;;;;;;;8.23;4.27;;;8.60;56.90;;;;;;5035032;28;20194;-83
2022/03/11 12:43:38;;;;;;;11.97;4.87;;;8.60;56.40;;;;;;5033620;28;20163;-83
2022/03/11 12:46:06;;;;;;;7.40;4.70;;;8.70;57.70;;;;;;5034950;28;20184;-81
2022/03/11 12:48:33;;;;;;;14.07;4.40;;;8.70;55.60;;;;;;5035078;28;20179;-83
2022/03/11 12:51:00;;;;;;;8.77;4.63;;;8.70;55.80;;;;;;5034964;28;20217;-85